createdAt,value
2019-05-15T00:00:51.293Z,99.90
2019-05-15T00:03:20.619Z,99.90
2019-05-15T00:05:49.874Z,99.90
2019-05-15T00:08:18.910Z,99.90
2019-05-15T00:10:48.684Z,99.90
2019-05-15T00:13:18.501Z,99.90
2019-05-15T00:15:48.106Z,99.90
2019-05-15T00:18:18.560Z,99.90
2019-05-15T00:20:49.608Z,99.90
2019-05-15T00:23:19.034Z,99.90
2019-05-15T00:25:48.848Z,99.90
2019-05-15T00:28:18.733Z,99.90
2019-05-15T00:30:48.619Z,99.90
2019-05-15T00:33:19.313Z,99.90
2019-05-15T00:35:48.691Z,99.90
2019-05-15T00:38:18.631Z,99.90
2019-05-15T00:40:49.569Z,99.90
2019-05-15T00:43:19.468Z,99.90
2019-05-15T00:45:49.055Z,99.90
2019-05-15T00:48:18.567Z,99.90
2019-05-15T00:50:48.577Z,99.90
2019-05-15T00:53:19.651Z,99.90
2019-05-15T00:55:49.014Z,99.90
2019-05-15T00:58:20.044Z,99.90
2019-05-15T01:00:49.556Z,99.90
2019-05-15T01:03:18.862Z,99.90
2019-05-15T01:05:48.563Z,99.90
2019-05-15T01:08:19.240Z,99.90
2019-05-15T01:10:49.104Z,99.90
2019-05-15T01:13:19.104Z,99.90
2019-05-15T01:15:49.104Z,99.90
2019-05-15T01:18:18.820Z,99.90
2019-05-15T01:20:49.348Z,99.90
2019-05-15T01:23:18.854Z,99.90
2019-05-15T01:25:48.555Z,99.90
2019-05-15T01:28:18.324Z,99.90
2019-05-15T01:30:48.713Z,99.90
2019-05-15T01:33:18.901Z,99.90
2019-05-15T01:35:48.901Z,99.90
2019-05-15T01:38:18.893Z,99.90
2019-05-15T01:40:48.699Z,99.90
2019-05-15T01:43:18.691Z,99.90
2019-05-15T01:45:48.408Z,99.90
2019-05-15T01:48:18.960Z,99.90
2019-05-15T01:50:49.234Z,99.90
2019-05-15T01:53:19.185Z,99.90
2019-05-15T01:55:48.552Z,99.90
2019-05-15T01:58:18.587Z,99.90
2019-05-15T02:00:48.579Z,99.90
2019-05-15T02:03:18.374Z,99.90
2019-05-15T02:05:48.158Z,99.90
2019-05-15T02:08:19.039Z,99.90
2019-05-15T02:10:49.438Z,99.90
2019-05-15T02:13:18.958Z,99.90
2019-05-15T02:15:48.376Z,99.90
2019-05-15T02:18:19.123Z,99.90
2019-05-15T02:20:49.325Z,99.90
2019-05-15T02:23:19.037Z,99.90
2019-05-15T02:25:48.236Z,99.90
2019-05-15T02:28:18.409Z,99.90
2019-05-15T02:30:50.581Z,99.90
2019-05-15T02:33:19.081Z,99.90
2019-05-15T02:35:50.072Z,99.90
2019-05-15T02:38:20.153Z,99.90
2019-05-15T02:40:49.569Z,99.90
2019-05-15T02:43:19.169Z,99.90
2019-05-15T02:45:50.969Z,99.90
2019-05-15T02:48:20.073Z,99.90
2019-05-15T02:50:50.072Z,99.90
2019-05-15T02:53:19.452Z,99.90
2019-05-15T02:55:49.535Z,99.90
2019-05-15T02:58:21.216Z,99.90
2019-05-15T03:00:53.336Z,99.90
2019-05-15T03:03:21.298Z,99.90
2019-05-15T03:05:50.171Z,99.90
2019-05-15T03:08:19.975Z,99.90
2019-05-15T03:10:49.916Z,99.90
2019-05-15T03:13:19.385Z,99.90
2019-05-15T03:15:49.090Z,99.90
2019-05-15T03:18:19.365Z,99.90
2019-05-15T03:20:50.143Z,99.90
2019-05-15T03:23:19.991Z,99.90
2019-05-15T03:25:49.290Z,99.90
2019-05-15T03:28:19.242Z,99.90
2019-05-15T03:31:15.799Z,99.90
2019-05-15T03:33:27.449Z,99.90
2019-05-15T03:35:54.229Z,99.90
2019-05-15T03:38:20.787Z,99.90
2019-05-15T03:40:49.950Z,99.90
2019-05-15T03:43:19.074Z,99.90
2019-05-15T03:45:49.327Z,99.90
2019-05-15T03:48:19.643Z,99.90
2019-05-15T03:50:49.294Z,99.90
2019-05-15T03:53:19.202Z,99.90
2019-05-15T03:55:49.184Z,99.90
2019-05-15T03:58:21.538Z,99.90
2019-05-15T04:00:49.964Z,99.90
2019-05-15T04:03:20.233Z,99.90
2019-05-15T04:05:49.630Z,99.90
2019-05-15T04:08:19.645Z,99.90
2019-05-15T04:10:48.988Z,99.90
2019-05-15T04:13:19.501Z,99.90
2019-05-15T04:15:50.311Z,99.90
2019-05-15T04:18:20.532Z,99.90
2019-05-15T04:20:49.593Z,99.90
2019-05-15T04:23:24.204Z,99.90
2019-05-15T04:25:54.187Z,99.90
2019-05-15T04:28:23.090Z,99.90
2019-05-15T04:30:52.370Z,99.90
2019-05-15T04:33:21.804Z,99.90
2019-05-15T04:35:51.123Z,99.90
2019-05-15T04:38:20.501Z,99.90
2019-05-15T04:40:50.062Z,99.90
2019-05-15T04:43:19.703Z,99.90
2019-05-15T04:45:49.770Z,99.90
2019-05-15T04:48:20.089Z,99.90
2019-05-15T04:50:49.881Z,99.90
2019-05-15T04:53:19.492Z,99.90
2019-05-15T04:55:49.356Z,99.90
2019-05-15T04:58:20.852Z,99.90
2019-05-15T05:00:53.667Z,99.90
2019-05-15T05:03:22.982Z,99.90
2019-05-15T05:05:51.941Z,99.90
2019-05-15T05:08:21.364Z,99.90
2019-05-15T05:10:50.867Z,99.90
2019-05-15T05:13:20.506Z,99.90
2019-05-15T05:15:50.841Z,99.90
2019-05-15T05:18:20.430Z,99.90
2019-05-15T05:20:49.526Z,99.90
2019-05-15T05:23:19.409Z,99.90
2019-05-15T05:25:49.563Z,99.90
2019-05-15T05:28:18.907Z,99.90
2019-05-15T05:30:48.404Z,99.90
2019-05-15T05:33:18.479Z,99.90
2019-05-15T05:35:48.708Z,99.90
2019-05-15T05:38:19.092Z,99.90
2019-05-15T05:40:49.583Z,99.90
2019-05-15T05:43:19.532Z,99.90
2019-05-15T05:45:49.416Z,99.90
2019-05-15T05:48:19.283Z,99.90
2019-05-15T05:50:50.006Z,99.90
2019-05-15T05:53:21.214Z,99.90
2019-05-15T05:55:52.986Z,99.90
2019-05-15T05:58:20.627Z,99.90
2019-05-15T06:00:49.961Z,99.90
2019-05-15T06:03:19.895Z,99.90
2019-05-15T06:05:49.740Z,99.90
2019-05-15T06:08:19.724Z,99.90
2019-05-15T06:10:49.870Z,99.90
2019-05-15T06:13:19.262Z,99.90
2019-05-15T06:15:49.044Z,99.90
2019-05-15T06:18:19.530Z,99.90
2019-05-15T06:20:49.649Z,99.90
2019-05-15T06:23:23.605Z,99.90
2019-05-15T06:25:50.146Z,99.90
2019-05-15T06:28:20.065Z,99.90
2019-05-15T06:30:49.406Z,99.90
2019-05-15T06:33:19.056Z,99.90
2019-05-15T06:35:49.056Z,99.90
2019-05-15T06:38:19.243Z,99.90
2019-05-15T06:40:48.946Z,99.90
2019-05-15T06:43:19.198Z,99.90
2019-05-15T06:45:49.207Z,99.90
2019-05-15T06:48:18.847Z,99.90
2019-05-15T06:50:48.919Z,99.90
2019-05-15T06:53:19.211Z,99.90
2019-05-15T06:55:49.015Z,99.90
2019-05-15T06:58:19.436Z,99.90
2019-05-15T07:00:49.415Z,99.90
2019-05-15T07:03:25.312Z,99.90
2019-05-15T07:05:50.964Z,99.90
2019-05-15T07:08:21.163Z,99.90
2019-05-15T07:10:50.801Z,99.90
2019-05-15T07:13:20.670Z,99.90
2019-05-15T07:15:49.938Z,99.90
2019-05-15T07:18:19.798Z,99.90
2019-05-15T07:20:49.750Z,99.90
2019-05-15T07:23:19.149Z,99.90
2019-05-15T07:25:49.899Z,99.90
2019-05-15T07:28:19.372Z,99.90
2019-05-15T07:30:49.524Z,99.90
2019-05-15T07:33:34.209Z,99.90
2019-05-15T07:35:51.023Z,99.90
2019-05-15T07:38:20.267Z,99.90
2019-05-15T07:40:57.332Z,99.90
2019-05-15T07:43:20.503Z,99.90
2019-05-15T07:45:55.271Z,99.90
2019-05-15T07:48:20.315Z,99.90
2019-05-15T07:50:50.048Z,99.90
2019-05-15T07:53:20.161Z,99.90
2019-05-15T07:55:51.234Z,99.90
2019-05-15T07:58:21.837Z,99.90
2019-05-15T08:00:51.194Z,99.90
2019-05-15T08:03:20.302Z,99.90
2019-05-15T08:05:58.718Z,99.90
2019-05-15T08:08:20.035Z,99.90
2019-05-15T08:10:49.357Z,99.90
2019-05-15T08:13:18.757Z,99.90
2019-05-15T08:15:48.759Z,99.90
2019-05-15T08:18:18.317Z,99.90
2019-05-15T08:20:49.074Z,99.90
2019-05-15T08:23:19.254Z,99.90
2019-05-15T08:25:48.846Z,99.90
2019-05-15T08:28:19.327Z,99.90
2019-05-15T08:30:49.531Z,99.90
2019-05-15T08:33:18.848Z,99.90
2019-05-15T08:35:51.634Z,99.90
2019-05-15T08:38:19.815Z,99.90
2019-05-15T08:40:49.227Z,99.10
2019-05-15T08:43:18.722Z,99.40
2019-05-15T08:45:49.535Z,99.90
2019-05-15T08:48:18.812Z,99.90
2019-05-15T08:50:48.755Z,98.50
2019-05-15T08:53:19.481Z,95.90
2019-05-15T08:55:49.335Z,96.30
2019-05-15T08:58:20.809Z,97.20
2019-05-15T09:00:52.419Z,95.00
2019-05-15T09:03:21.049Z,92.60
2019-05-15T09:05:49.981Z,91.40
2019-05-15T09:08:19.790Z,90.20
2019-05-15T09:10:50.324Z,93.40
2019-05-15T09:13:19.982Z,90.40
2019-05-15T09:15:49.197Z,92.40
2019-05-15T09:18:20.244Z,89.90
2019-05-15T09:20:49.651Z,89.00
2019-05-15T09:23:19.635Z,87.30
2019-05-15T09:25:49.871Z,80.90
2019-05-15T09:28:19.530Z,82.00
2019-05-15T09:30:49.018Z,77.10
2019-05-15T09:33:20.024Z,76.70
2019-05-15T09:35:49.358Z,75.30
2019-05-15T09:38:18.885Z,73.70
2019-05-15T09:40:50.491Z,68.70
2019-05-15T09:43:19.038Z,70.20
2019-05-15T09:45:49.365Z,70.70
2019-05-15T09:48:19.817Z,76.90
2019-05-15T09:50:49.698Z,75.60
2019-05-15T09:53:19.234Z,71.30
2019-05-15T09:55:49.524Z,77.00
2019-05-15T09:58:20.617Z,73.90
2019-05-15T10:00:52.806Z,69.40
2019-05-15T10:03:20.912Z,68.90
2019-05-15T10:05:50.116Z,68.90
2019-05-15T10:08:21.261Z,71.90
2019-05-15T10:10:50.425Z,66.00
2019-05-15T10:13:19.489Z,68.00
2019-05-15T10:15:51.148Z,69.00
2019-05-15T10:18:19.813Z,64.80
2019-05-15T10:20:48.772Z,64.90
2019-05-15T10:23:19.662Z,68.10
2019-05-15T10:25:48.990Z,65.10
2019-05-15T10:28:19.048Z,66.60
2019-05-15T10:30:49.721Z,65.10
2019-05-15T10:33:20.353Z,67.60
2019-05-15T10:35:49.739Z,67.20
2019-05-15T10:38:19.363Z,63.90
2019-05-15T10:41:02.999Z,62.60
2019-05-15T10:43:20.968Z,59.80
2019-05-15T10:45:50.474Z,60.00
2019-05-15T10:48:20.409Z,58.50
2019-05-15T10:50:49.371Z,58.60
2019-05-15T10:53:19.152Z,58.30
2019-05-15T10:55:49.537Z,57.00
2019-05-15T10:58:22.178Z,54.30
2019-05-15T11:00:49.946Z,53.00
2019-05-15T11:03:20.017Z,54.00
2019-05-15T11:05:49.833Z,53.60
2019-05-15T11:08:19.162Z,51.90
2019-05-15T11:10:49.451Z,48.40
2019-05-15T11:13:19.164Z,50.10
2019-05-15T11:15:49.197Z,48.70
2019-05-15T11:18:18.965Z,47.80
2019-05-15T11:20:48.871Z,46.30
2019-05-15T11:23:19.994Z,46.50
2019-05-15T11:25:49.542Z,45.20
2019-05-15T11:28:18.843Z,47.70
2019-05-15T11:30:49.030Z,46.80
2019-05-15T11:33:19.196Z,47.70
2019-05-15T11:36:00.513Z,47.60
2019-05-15T11:38:19.722Z,48.00
2019-05-15T11:40:48.993Z,46.40
2019-05-15T11:43:19.674Z,47.20
2019-05-15T11:45:48.880Z,47.70
2019-05-15T11:48:29.559Z,44.30
2019-05-15T11:51:01.135Z,45.60
2019-05-15T11:53:32.233Z,43.60
2019-05-15T11:56:02.722Z,44.10
2019-05-15T11:58:32.504Z,42.50
2019-05-15T12:01:01.743Z,41.90
2019-05-15T12:03:31.481Z,41.50
2019-05-15T12:06:14.889Z,42.50
2019-05-15T12:08:31.750Z,42.10
2019-05-15T12:11:01.334Z,44.10
2019-05-15T12:13:30.506Z,44.10
2019-05-15T12:15:59.678Z,42.70
2019-05-15T12:18:28.752Z,44.00
2019-05-15T12:20:59.532Z,44.00
2019-05-15T12:23:29.511Z,43.70
2019-05-15T12:25:59.747Z,43.70
2019-05-15T12:28:29.818Z,45.00
2019-05-15T12:30:59.901Z,44.00
2019-05-15T12:33:29.677Z,45.00
2019-05-15T12:35:58.769Z,45.50
2019-05-15T12:38:28.933Z,44.20
2019-05-15T13:01:17.020Z,50.20
2019-05-15T13:03:38.435Z,49.60
2019-05-15T13:06:08.152Z,50.10
2019-05-15T13:08:38.634Z,51.40
2019-05-15T13:11:09.821Z,50.60
2019-05-15T13:13:39.018Z,52.00
2019-05-15T13:16:07.970Z,52.90
2019-05-15T13:18:38.803Z,53.30
2019-05-15T13:21:08.204Z,53.20
2019-05-15T13:23:38.703Z,55.30
2019-05-15T13:26:15.214Z,55.60
2019-05-15T13:28:39.230Z,55.80
2019-05-15T13:31:09.296Z,55.70
2019-05-15T13:33:38.825Z,55.90
2019-05-15T13:36:08.893Z,57.00
2019-05-15T13:38:38.954Z,55.90
2019-05-15T13:41:09.449Z,55.80
2019-05-15T13:43:39.102Z,57.40
2019-05-15T13:46:08.868Z,58.70
2019-05-15T13:48:38.576Z,58.90
2019-05-15T13:51:07.690Z,58.10
2019-05-15T13:53:38.473Z,60.00
2019-05-15T13:56:07.206Z,60.90
2019-05-15T13:58:38.618Z,61.20
2019-05-15T14:01:09.370Z,63.70
2019-05-15T14:03:39.052Z,64.50
2019-05-15T14:06:09.432Z,65.50
2019-05-15T14:08:39.219Z,67.30
2019-05-15T14:11:08.822Z,71.20
2019-05-15T14:13:39.127Z,71.40
2019-05-15T14:16:09.664Z,72.50
2019-05-15T14:18:39.404Z,76.40
2019-05-15T14:21:09.033Z,79.00
2019-05-15T14:23:38.665Z,82.90
2019-05-15T14:26:17.898Z,81.80
2019-05-15T14:28:38.922Z,82.60
2019-05-15T14:31:09.693Z,81.80
2019-05-15T14:33:39.557Z,86.10
2019-05-15T14:36:08.625Z,83.20
2019-05-15T14:38:38.268Z,87.90
2019-05-15T14:41:08.830Z,87.60
2019-05-15T14:43:38.387Z,91.60
2019-05-15T14:46:08.212Z,90.60
2019-05-15T14:48:38.706Z,91.40
2019-05-15T14:51:08.688Z,93.40
2019-05-15T14:53:38.602Z,92.60
2019-05-15T14:56:08.518Z,94.60
2019-05-15T14:58:38.756Z,93.70
2019-05-15T15:01:12.463Z,95.60
2019-05-15T15:03:39.935Z,96.10
2019-05-15T15:06:09.157Z,96.00
2019-05-15T15:08:38.331Z,96.90
2019-05-15T15:11:08.798Z,96.90
2019-05-15T15:13:38.234Z,97.00
2019-05-15T15:16:08.445Z,97.30
2019-05-15T15:18:38.790Z,97.70
2019-05-15T15:21:08.754Z,97.50
2019-05-15T15:23:39.011Z,98.10
2019-05-15T15:26:08.860Z,98.50
2019-05-15T15:28:40.014Z,99.10
2019-05-15T15:31:08.589Z,99.00
2019-05-15T15:33:39.192Z,99.20
2019-05-15T15:36:08.819Z,99.20
2019-05-15T15:38:43.734Z,99.90
2019-05-15T15:41:09.284Z,99.40
2019-05-15T15:43:38.766Z,99.90
2019-05-15T15:46:08.763Z,99.90
2019-05-15T15:48:39.103Z,99.90
2019-05-15T15:51:09.103Z,99.90
2019-05-15T15:53:39.239Z,99.90
2019-05-15T15:56:10.669Z,99.90
2019-05-15T15:58:39.334Z,99.90
2019-05-15T16:01:09.168Z,99.90
2019-05-15T16:03:39.305Z,99.90
2019-05-15T16:09:38.784Z,99.90
2019-05-15T16:12:09.635Z,99.90
2019-05-15T16:14:38.263Z,99.90
2019-05-15T16:17:08.587Z,99.90
2019-05-15T16:19:38.921Z,99.90
2019-05-15T16:22:08.938Z,99.90
2019-05-15T16:24:38.686Z,99.90
2019-05-15T16:27:09.645Z,99.90
2019-05-15T16:29:39.371Z,99.90
2019-05-15T16:32:08.839Z,99.90
2019-05-15T16:34:39.321Z,99.90
2019-05-15T16:37:09.058Z,99.90
2019-05-15T16:39:38.304Z,99.90
2019-05-15T16:42:07.399Z,99.90
2019-05-15T16:44:38.455Z,99.90
2019-05-15T16:47:08.465Z,99.90
2019-05-15T16:49:39.072Z,99.90
2019-05-15T16:52:09.231Z,99.90
2019-05-15T16:54:38.701Z,99.90
2019-05-15T16:57:09.904Z,99.90
2019-05-15T16:59:39.027Z,99.90
2019-05-15T17:02:08.747Z,99.90
2019-05-15T17:04:38.578Z,99.90
2019-05-15T17:07:07.810Z,99.90
2019-05-15T17:09:38.713Z,99.90
2019-05-15T17:12:08.717Z,99.90
2019-05-15T17:14:38.882Z,99.90
2019-05-15T17:17:08.177Z,99.90
2019-05-15T17:19:39.617Z,99.90
2019-05-15T17:22:09.491Z,99.90
2019-05-15T17:24:38.947Z,99.90
2019-05-15T17:27:10.272Z,99.90
2019-05-15T17:29:38.848Z,99.90
2019-05-15T17:32:08.548Z,99.90
2019-05-15T17:34:38.073Z,99.90
2019-05-15T17:37:07.811Z,99.90
2019-05-15T17:39:41.400Z,99.90
2019-05-15T17:42:07.825Z,99.90
2019-05-15T17:44:38.229Z,99.90
2019-05-15T17:47:09.626Z,99.90
2019-05-15T17:49:38.761Z,99.90
2019-05-15T17:52:08.836Z,99.90
2019-05-15T17:54:38.185Z,99.90
2019-05-15T17:57:09.229Z,99.90
2019-05-15T17:59:38.543Z,99.90
2019-05-15T18:02:08.608Z,99.90
2019-05-15T18:04:38.856Z,99.90
2019-05-15T18:07:08.696Z,99.90
2019-05-15T18:09:50.394Z,99.90
2019-05-15T18:12:11.136Z,99.90
2019-05-15T18:14:39.950Z,99.90
2019-05-15T18:17:08.895Z,99.90
2019-05-15T18:19:38.112Z,99.90
2019-05-15T18:22:08.971Z,99.90
2019-05-15T18:24:38.305Z,99.90
2019-05-15T18:27:08.162Z,99.90
2019-05-15T18:29:38.643Z,99.90
2019-05-15T18:32:08.594Z,99.90
2019-05-15T18:34:40.107Z,99.90
2019-05-15T18:37:09.009Z,99.90
2019-05-15T18:39:38.977Z,99.90
2019-05-15T18:42:08.329Z,99.90
2019-05-15T18:44:39.370Z,99.90
2019-05-15T18:47:09.571Z,99.90
2019-05-15T18:49:38.755Z,99.90
2019-05-15T18:52:08.811Z,99.90
2019-05-15T18:54:39.006Z,99.90
2019-05-15T18:57:08.883Z,99.90
2019-05-15T18:59:37.738Z,99.90
2019-05-15T19:02:08.000Z,99.90
2019-05-15T19:04:38.471Z,99.90
2019-05-15T19:07:08.855Z,99.90
2019-05-15T19:09:38.715Z,99.90
2019-05-15T19:12:09.521Z,99.90
2019-05-15T19:14:39.539Z,99.90
2019-05-15T19:17:09.426Z,99.90
2019-05-15T19:19:38.974Z,99.90
2019-05-15T19:22:08.533Z,99.90
2019-05-15T19:24:40.118Z,99.90
2019-05-15T19:27:09.123Z,99.90
2019-05-15T19:29:38.344Z,99.90
2019-05-15T19:32:10.636Z,99.90
2019-05-15T19:34:41.358Z,99.90
2019-05-15T19:37:10.745Z,99.90
2019-05-15T19:39:40.061Z,99.90
2019-05-15T19:42:08.996Z,99.90
2019-05-15T19:44:38.694Z,99.90
2019-05-15T19:47:07.997Z,99.90
2019-05-15T19:49:37.888Z,99.90
2019-05-15T19:52:08.576Z,99.90
2019-05-15T19:54:37.924Z,99.90
2019-05-15T19:57:08.116Z,99.90
2019-05-15T19:59:38.145Z,99.90
2019-05-15T20:02:08.528Z,99.90
2019-05-15T20:04:38.608Z,99.90
2019-05-15T20:07:08.433Z,99.90
2019-05-15T20:09:38.347Z,99.90
2019-05-15T20:12:09.052Z,99.90
2019-05-15T20:14:38.324Z,99.90
2019-05-15T20:17:08.109Z,99.90
2019-05-15T20:19:38.228Z,99.90
2019-05-15T20:22:08.050Z,99.90
2019-05-15T20:24:38.125Z,99.90
2019-05-15T20:27:08.593Z,99.90
2019-05-15T20:29:38.420Z,99.90
2019-05-15T20:32:08.248Z,99.90
2019-05-15T20:34:38.020Z,99.90
2019-05-15T20:37:07.415Z,99.90
2019-05-15T20:39:38.192Z,99.90
2019-05-15T20:42:08.800Z,99.90
2019-05-15T20:44:38.097Z,99.90
2019-05-15T20:47:08.395Z,99.90
2019-05-15T20:49:37.919Z,99.90
2019-05-15T20:52:07.314Z,99.90
2019-05-15T20:54:38.639Z,99.90
2019-05-15T20:57:08.813Z,99.90
2019-05-15T20:59:38.778Z,99.90
2019-05-15T21:02:08.275Z,99.90
2019-05-15T21:04:38.514Z,99.90
2019-05-15T21:07:10.101Z,99.90
2019-05-15T21:09:39.504Z,99.90
2019-05-15T21:12:09.883Z,99.90
2019-05-15T21:14:40.137Z,99.90
2019-05-15T21:17:09.465Z,99.90
2019-05-15T21:19:38.679Z,99.90
2019-05-15T21:22:08.328Z,99.90
2019-05-15T21:24:38.306Z,99.90
2019-05-15T21:27:07.203Z,99.90
2019-05-15T21:29:38.149Z,99.90
2019-05-15T21:32:08.837Z,99.90
2019-05-15T21:34:44.079Z,99.90
2019-05-15T21:37:09.362Z,99.90
2019-05-15T21:39:39.112Z,99.90
2019-05-15T21:42:08.956Z,99.90
2019-05-15T21:44:38.278Z,99.90
2019-05-15T21:47:08.179Z,99.90
2019-05-15T21:49:38.811Z,99.90
2019-05-15T21:52:08.033Z,99.90
2019-05-15T21:54:38.610Z,99.90
2019-05-15T21:57:29.216Z,99.90
2019-05-15T21:59:39.456Z,99.90
2019-05-15T22:02:09.598Z,99.90
2019-05-15T22:04:51.224Z,99.90
2019-05-15T22:07:09.664Z,99.90
2019-05-15T22:09:38.586Z,99.90
2019-05-15T22:12:08.486Z,99.90
2019-05-15T22:14:37.926Z,99.90
2019-05-15T22:17:09.222Z,99.90
2019-05-15T22:19:38.716Z,99.90
2019-05-15T22:22:08.736Z,99.90
2019-05-15T22:24:38.654Z,99.90
2019-05-15T22:27:09.614Z,99.90
2019-05-15T22:29:38.695Z,99.90
2019-05-15T22:32:08.150Z,99.90
2019-05-15T22:34:37.414Z,99.90
2019-05-15T22:37:08.454Z,99.90
2019-05-15T22:39:38.506Z,99.90
2019-05-15T22:42:08.240Z,99.90
2019-05-15T22:44:38.716Z,99.90
2019-05-15T22:47:07.597Z,99.90
2019-05-15T22:49:38.091Z,99.90
2019-05-15T22:52:08.557Z,99.90
2019-05-15T22:54:38.713Z,99.90
2019-05-15T22:57:07.810Z,99.90
2019-05-15T22:59:38.255Z,99.90
2019-05-15T23:02:09.211Z,99.90
2019-05-15T23:04:38.679Z,99.90
2019-05-15T23:07:08.239Z,99.90
2019-05-15T23:09:38.407Z,99.90
2019-05-15T23:12:11.381Z,99.90
2019-05-15T23:14:38.598Z,99.90
2019-05-15T23:17:08.266Z,99.90
2019-05-15T23:19:38.589Z,99.90
2019-05-15T23:22:08.441Z,99.90
2019-05-15T23:24:38.745Z,99.90
2019-05-15T23:27:08.909Z,99.90
2019-05-15T23:29:38.624Z,99.90
2019-05-15T23:32:08.444Z,99.90
2019-05-15T23:34:38.658Z,99.90
2019-05-15T23:37:08.313Z,99.90
2019-05-15T23:39:38.055Z,99.90
2019-05-15T23:42:08.867Z,99.90
2019-05-15T23:44:38.348Z,99.90
2019-05-15T23:47:07.296Z,99.90
2019-05-15T23:49:38.046Z,99.90
2019-05-15T23:52:08.751Z,99.90
2019-05-15T23:54:38.547Z,99.90
2019-05-15T23:57:08.976Z,99.90
2019-05-15T23:59:38.549Z,99.90
